Time;durP1;ratioP1;P1;durP2;ratioP2;P2;SDS_P1;SDS_P2;PMS_P1;PMS_P2;Temp;Humidity;BMP_temperature;BMP_pressure;BME280_temperature;BME280_humidity;BME280_pressure;Samples;Min_cycle;Max_cycle;Signal;HPM_P1;HPM_P2
2022/10/24 00:03:12;;;;;;;2.45;1.85;;;;;15.70;96356.00;;;;8330560;28;20252;-69
2022/10/24 00:07:15;;;;;;;5.07;1.83;;;;;15.70;96330.00;;;;8330419;28;20225;-69
2022/10/24 00:11:22;;;;;;;2.35;2.08;;;;;15.70;96323.00;;;;8330526;28;20221;-69
2022/10/24 00:15:25;;;;;;;4.72;1.90;;;;;15.70;96323.00;;;;8330034;28;20225;-70
2022/10/24 00:20:04;;;;;;;7.95;2.20;;;;;15.70;96305.00;;;;8330449;28;20244;-71
2022/10/24 00:24:07;;;;;;;5.47;2.05;;;;;15.70;96298.00;;;;8329000;28;20228;-71
2022/10/24 00:28:11;;;;;;;13.27;2.55;;;;;15.70;96268.00;;;;8328897;28;20229;-71
2022/10/24 00:32:14;;;;;;;8.18;2.80;;;;;15.60;96249.00;;;;8328815;28;20217;-71
2022/10/24 00:36:20;;;;;;;9.25;2.85;;;;;15.60;96243.00;;;;8329834;28;20224;-71
2022/10/24 00:40:54;;;;;;;10.85;3.20;;;;;15.60;96253.00;;;;8329351;28;20548;-71
2022/10/24 00:44:58;;;;;;;5.72;2.42;;;;;15.50;96265.00;;;;8329254;28;20229;-70
2022/10/24 00:49:01;;;;;;;8.65;2.78;;;;;15.50;96250.00;;;;8329587;28;20233;-70
2022/10/24 00:53:41;;;;;;;6.47;2.60;;;;;15.40;96244.00;;;;8328921;28;20225;-69
2022/10/24 00:57:47;;;;;;;8.00;2.53;;;;;15.40;96218.00;;;;8329599;28;20224;-69
2022/10/24 01:01:52;;;;;;;5.43;2.85;;;;;15.40;96222.00;;;;8329170;28;20213;-69
2022/10/24 01:06:32;;;;;;;8.18;2.78;;;;;15.30;96233.00;;;;8325191;28;20224;-69
2022/10/24 01:10:46;;;;;;;6.93;2.83;;;;;15.30;96232.00;;;;8328747;28;20229;-69
2022/10/24 01:15:14;;;;;;;9.10;2.80;;;;;15.20;96252.00;;;;8327807;28;20235;-69
2022/10/24 01:19:41;;;;;;;9.15;3.08;;;;;15.30;96252.00;;;;8328992;28;20619;-69
2022/10/24 01:24:21;;;;;;;5.70;2.40;;;;;15.20;96243.00;;;;8329008;28;20224;-70
2022/10/24 01:28:30;;;;;;;12.45;3.35;;;;;15.30;96236.00;;;;8327437;28;20226;-70
2022/10/24 01:32:42;;;;;;;6.53;3.40;;;;;15.30;96245.00;;;;8328296;28;20256;-70
2022/10/24 01:36:51;;;;;;;9.93;2.90;;;;;15.30;96263.00;;;;8328413;28;20224;-70
2022/10/24 01:41:23;;;;;;;9.77;3.03;;;;;15.30;96271.00;;;;8327068;28;20229;-70
2022/10/24 01:45:30;;;;;;;9.98;3.20;;;;;15.30;96263.00;;;;8327136;28;20240;-70
2022/10/24 01:49:37;;;;;;;9.02;3.05;;;;;15.30;96256.00;;;;8327437;28;20602;-70
2022/10/24 01:54:12;;;;;;;11.65;3.30;;;;;15.30;96251.00;;;;8327971;28;20655;-70
2022/10/24 01:58:15;;;;;;;5.32;3.30;;;;;15.30;96246.00;;;;8326976;28;20610;-69
2022/10/24 02:02:52;;;;;;;11.98;3.10;;;;;15.30;96239.00;;;;8327820;28;20225;-69
2022/10/24 02:06:59;;;;;;;7.75;3.20;;;;;15.30;96243.00;;;;8326888;28;20244;-70
2022/10/24 02:11:33;;;;;;;5.68;2.78;;;;;15.30;96245.00;;;;8325510;28;20228;-70
2022/10/24 02:16:10;;;;;;;8.32;2.92;;;;;15.30;96235.00;;;;8327491;28;20224;-69
2022/10/24 02:20:50;;;;;;;6.60;2.92;;;;;15.40;96232.00;;;;8327149;28;20561;-70
2022/10/24 02:24:58;;;;;;;8.68;3.10;;;;;15.40;96232.00;;;;8327567;28;20217;-70
2022/10/24 02:29:08;;;;;;;11.35;3.00;;;;;15.40;96222.00;;;;8328421;28;20214;-70
2022/10/24 02:38:12;;;;;;;13.48;3.05;;;;;15.50;96231.00;;;;8329591;28;20256;-70
2022/10/24 02:42:19;;;;;;;7.80;2.63;;;;;15.50;96230.00;;;;8327680;28;20233;-70
2022/10/24 02:46:24;;;;;;;4.72;2.45;;;;;15.50;96221.00;;;;8327657;28;20268;-70
2022/10/24 02:50:27;;;;;;;7.68;2.88;;;;;15.50;96215.00;;;;8326264;28;20248;-70
2022/10/24 02:54:30;;;;;;;9.13;3.50;;;;;15.50;96233.00;;;;8331625;28;20236;-70
2022/10/24 02:58:35;;;;;;;10.85;3.28;;;;;15.60;96233.00;;;;8332720;28;20225;-70
2022/10/24 03:02:38;;;;;;;6.78;3.50;;;;;15.50;96227.00;;;;8332585;28;20282;-70
2022/10/24 03:07:11;;;;;;;10.80;3.40;;;;;15.50;96228.00;;;;8333307;28;20248;-70
2022/10/24 03:11:14;;;;;;;11.63;4.03;;;;;15.40;96227.00;;;;8331687;28;20222;-70
2022/10/24 03:15:19;;;;;;;9.90;3.50;;;;;15.40;96221.00;;;;8332668;28;25563;-70
2022/10/24 03:19:22;;;;;;;8.68;3.63;;;;;15.40;96218.00;;;;8332760;28;20259;-70
2022/10/24 03:24:00;;;;;;;7.82;3.42;;;;;15.30;96204.00;;;;8332711;28;20233;-70
2022/10/24 03:28:03;;;;;;;9.13;3.83;;;;;15.30;96213.00;;;;8331747;28;20241;-69
2022/10/24 03:32:08;;;;;;;15.35;5.18;;;;;15.20;96202.00;;;;8332324;28;20267;-70
2022/10/24 03:36:11;;;;;;;15.90;6.80;;;;;15.20;96237.00;;;;8332316;28;20228;-70
2022/10/24 03:40:53;;;;;;;17.08;7.70;;;;;15.20;96241.00;;;;8331842;28;20213;-70
2022/10/24 03:45:24;;;;;;;20.20;8.55;;;;;15.20;96252.00;;;;8325700;28;20213;-70
2022/10/24 03:50:02;;;;;;;15.65;8.18;;;;;15.20;96237.00;;;;8323821;28;20221;-70
2022/10/24 03:54:35;;;;;;;17.70;8.13;;;;;15.20;96229.00;;;;8330373;28;20271;-70
2022/10/24 03:59:12;;;;;;;18.10;8.43;;;;;15.10;96239.00;;;;8330865;28;20217;-69
2022/10/24 04:03:49;;;;;;;18.98;8.15;;;;;15.10;96229.00;;;;8331194;28;20220;-69
2022/10/24 04:08:27;;;;;;;21.42;10.65;;;;;15.20;96240.00;;;;8330329;28;20229;-69
2022/10/24 04:13:00;;;;;;;20.88;10.55;;;;;15.20;96250.00;;;;8327639;28;20263;-69
2022/10/24 04:17:37;;;;;;;24.00;11.20;;;;;15.10;96254.00;;;;8329554;28;20214;-68
2022/10/24 04:22:14;;;;;;;26.05;10.48;;;;;15.00;96258.00;;;;8326652;28;20640;-68
2022/10/24 04:26:51;;;;;;;21.88;10.38;;;;;15.10;96252.00;;;;8325864;28;20248;-69
2022/10/24 04:31:29;;;;;;;24.95;10.88;;;;;15.00;96251.00;;;;8328938;28;20237;-69
2022/10/24 04:40:49;;;;;;;23.13;10.63;;;;;15.00;96245.00;;;;8362524;28;20628;-69
2022/10/24 04:45:23;;;;;;;22.10;9.73;;;;;15.00;96247.00;;;;8330323;28;20591;-68
2022/10/24 04:50:01;;;;;;;26.25;11.43;;;;;14.90;96248.00;;;;8352084;28;20235;-68
2022/10/24 04:54:35;;;;;;;23.17;10.73;;;;;14.90;96249.00;;;;8361725;28;20562;-69
2022/10/24 04:59:12;;;;;;;20.55;9.00;;;;;14.90;96259.00;;;;8361895;28;20212;-68
2022/10/24 05:03:49;;;;;;;21.33;9.20;;;;;14.90;96289.00;;;;8361060;28;20667;-71
2022/10/24 05:08:27;;;;;;;29.25;11.27;;;;;14.90;96283.00;;;;8361431;28;20224;-73
2022/10/24 05:13:01;;;;;;;26.48;12.13;;;;;14.80;96266.00;;;;8361024;28;20254;-72
2022/10/24 05:17:38;;;;;;;24.98;10.98;;;;;14.90;96255.00;;;;8331724;28;20205;-73
2022/10/24 05:22:15;;;;;;;22.00;10.80;;;;;14.90;96213.00;;;;8360903;28;20627;-72
2022/10/24 05:26:53;;;;;;;24.52;9.35;;;;;14.90;96212.00;;;;8327911;28;20209;-70
2022/10/24 05:31:27;;;;;;;19.42;7.10;;;;;14.90;96247.00;;;;8361033;28;20228;-70
2022/10/24 05:41:01;;;;;;;22.17;8.82;;;;;14.90;96248.00;;;;8359420;28;20223;-68
2022/10/24 05:45:39;;;;;;;21.92;8.80;;;;;14.90;96230.00;;;;8331463;28;20263;-68
2022/10/24 05:50:14;;;;;;;25.95;9.05;;;;;14.90;96254.00;;;;8330581;28;20265;-68
2022/10/24 05:54:51;;;;;;;24.05;9.38;;;;;14.90;96255.00;;;;8327541;28;20662;-67
2022/10/24 05:59:27;;;;;;;22.88;8.95;;;;;14.90;96266.00;;;;8359652;28;20265;-67
2022/10/24 06:04:05;;;;;;;24.27;9.13;;;;;15.00;96274.00;;;;8327941;28;20247;-67
2022/10/24 06:08:39;;;;;;;22.83;9.15;;;;;14.90;96276.00;;;;8326474;28;20632;-69
2022/10/24 06:13:16;;;;;;;25.13;9.32;;;;;15.00;96267.00;;;;8332925;28;20310;-69
2022/10/24 06:17:53;;;;;;;26.75;10.50;;;;;15.00;96251.00;;;;8327308;28;20266;-68
2022/10/24 06:22:29;;;;;;;28.48;10.65;;;;;14.90;96250.00;;;;8326868;28;20221;-68
2022/10/24 06:27:03;;;;;;;25.52;10.57;;;;;15.00;96240.00;;;;8326026;28;20647;-68
2022/10/24 06:31:40;;;;;;;22.70;9.65;;;;;14.90;96223.00;;;;8300424;28;20225;-68
2022/10/24 06:41:18;;;;;;;23.25;10.15;;;;;15.00;96247.00;;;;8300310;28;20217;-68
2022/10/24 06:45:52;;;;;;;27.83;10.15;;;;;15.00;96274.00;;;;8300319;28;20656;-68
2022/10/24 06:50:28;;;;;;;27.45;9.73;;;;;15.00;96278.00;;;;8299095;28;20213;-68
2022/10/24 06:55:06;;;;;;;25.92;9.30;;;;;15.10;96285.00;;;;8298778;28;20309;-69
2022/10/24 06:59:41;;;;;;;25.67;9.57;;;;;15.20;96292.00;;;;8299876;28;20237;-69
2022/10/24 07:04:15;;;;;;;19.33;9.60;;;;;15.20;96306.00;;;;8299038;28;20221;-68
2022/10/24 07:08:52;;;;;;;16.98;7.32;;;;;15.30;96307.00;;;;8299057;28;20241;-69
2022/10/24 07:13:29;;;;;;;21.25;7.53;;;;;15.30;96316.00;;;;8299147;28;20233;-68
2022/10/24 07:18:07;;;;;;;23.80;8.05;;;;;15.40;96308.00;;;;8299406;28;20237;-67
2022/10/24 07:22:44;;;;;;;19.23;7.95;;;;;15.40;96300.00;;;;8298351;28;20640;-67
2022/10/24 07:27:19;;;;;;;21.00;7.90;;;;;15.40;96271.00;;;;8298778;28;20268;-67
2022/10/24 07:31:57;;;;;;;20.02;7.95;;;;;15.40;96252.00;;;;8299187;28;20647;-68
2022/10/24 07:41:38;;;;;;;18.08;7.93;;;;;15.40;96208.00;;;;8296630;28;21238;-70
2022/10/24 07:46:09;;;;;;;25.15;10.05;;;;;15.40;96259.00;;;;8298261;28;20313;-70
2022/10/24 07:50:44;;;;;;;22.02;8.65;;;;;15.50;96290.00;;;;8293829;28;20218;-69
2022/10/24 07:55:20;;;;;;;26.05;10.40;;;;;15.50;96286.00;;;;8298346;28;20245;-67
2022/10/24 07:59:58;;;;;;;28.83;9.73;;;;;15.50;96301.00;;;;8297008;28;20218;-67
2022/10/24 08:04:32;;;;;;;28.15;10.95;;;;;15.50;96281.00;;;;8297741;28;20221;-67
2022/10/24 08:09:08;;;;;;;23.30;8.50;;;;;15.50;96278.00;;;;8297805;28;20220;-67
2022/10/24 08:13:45;;;;;;;25.98;8.60;;;;;15.60;96269.00;;;;8306632;28;20229;-67
2022/10/24 08:18:24;;;;;;;23.83;9.63;;;;;15.70;96307.00;;;;8327181;28;20555;-67
2022/10/24 08:22:58;;;;;;;26.23;8.43;;;;;15.80;96307.00;;;;8330119;28;20225;-67
2022/10/24 08:27:35;;;;;;;15.68;7.28;;;;;16.10;96347.00;;;;8329432;28;20233;-67
2022/10/24 08:32:12;;;;;;;19.70;7.60;;;;;16.30;96356.00;;;;8329573;28;20221;-67
2022/10/24 08:36:50;;;;;;;15.48;6.35;;;;;16.30;96373.00;;;;8328092;28;20727;-68
2022/10/24 08:41:29;;;;;;;10.63;5.65;;;;;16.40;96389.00;;;;8329842;28;20213;-67
2022/10/24 08:46:06;;;;;;;13.65;6.40;;;;;16.50;96389.00;;;;8329069;28;20229;-67
2022/10/24 08:50:41;;;;;;;17.33;6.43;;;;;16.60;96392.00;;;;8315649;28;20229;-67
2022/10/24 08:55:18;;;;;;;15.32;6.05;;;;;16.80;96391.00;;;;8329080;28;20224;-66
2022/10/24 08:59:53;;;;;;;26.55;7.20;;;;;17.10;96377.00;;;;8328093;28;20221;-66
2022/10/24 09:04:26;;;;;;;14.52;6.60;;;;;17.30;96376.00;;;;8328247;28;20271;-66
2022/10/24 09:09:04;;;;;;;10.27;5.72;;;;;17.40;96361.00;;;;8328141;28;20221;-66
2022/10/24 09:13:42;;;;;;;12.68;4.82;;;;;17.50;96360.00;;;;8327862;28;20235;-65
2022/10/24 09:18:16;;;;;;;9.13;4.28;;;;;17.50;96351.00;;;;8328130;28;20221;-67
2022/10/24 09:22:53;;;;;;;13.00;4.55;;;;;17.50;96341.00;;;;8327344;28;20228;-66
2022/10/24 09:27:32;;;;;;;9.65;4.43;;;;;17.60;96347.00;;;;8327947;28;20213;-67
2022/10/24 09:32:13;;;;;;;9.85;4.57;;;;;17.80;96322.00;;;;8327598;28;20213;-67
2022/10/24 09:37:09;;;;;;;9.98;5.00;;;;;18.10;96334.00;;;;8327735;28;20272;-67
2022/10/24 09:41:46;;;;;;;12.25;4.88;;;;;18.30;96356.00;;;;8327266;28;20239;-67
2022/10/24 09:46:23;;;;;;;8.77;4.43;;;;;18.40;96358.00;;;;8327182;28;20213;-67
2022/10/24 09:50:28;;;;;;;9.07;4.70;;;;;18.40;96352.00;;;;8327039;28;20225;-68
2022/10/24 09:54:32;;;;;;;10.90;4.53;;;;;18.50;96368.00;;;;8327420;28;20625;-67
2022/10/24 09:59:12;;;;;;;15.57;4.97;;;;;18.50;96367.00;;;;8327419;28;20225;-67
2022/10/24 10:03:49;;;;;;;14.13;5.30;;;;;18.40;96369.00;;;;8329567;28;20221;-68
2022/10/24 10:08:28;;;;;;;12.48;5.10;;;;;18.40;96368.00;;;;8333592;28;20229;-68
2022/10/24 10:13:04;;;;;;;13.32;4.47;;;;;18.30;96354.00;;;;8334489;28;20268;-68
2022/10/24 10:17:38;;;;;;;12.32;5.07;;;;;18.30;96358.00;;;;8333473;28;20228;-67
2022/10/24 10:22:22;;;;;;;10.93;4.15;;;;;18.40;96359.00;;;;8333816;28;20315;-68
2022/10/24 10:26:54;;;;;;;8.38;4.38;;;;;18.40;96369.00;;;;8334057;28;20224;-68
2022/10/24 10:31:33;;;;;;;15.77;5.63;;;;;18.30;96363.00;;;;8333680;28;20535;-68
2022/10/24 10:35:43;;;;;;;14.30;5.30;;;;;18.20;96380.00;;;;8333400;28;20693;-68
2022/10/24 10:40:21;;;;;;;10.20;4.95;;;;;18.00;96376.00;;;;8333840;28;20213;-68
2022/10/24 10:45:03;;;;;;;13.63;5.40;;;;;17.80;96372.00;;;;8333909;28;20367;-68
2022/10/24 10:49:32;;;;;;;20.55;7.45;;;;;17.60;96390.00;;;;8332348;28;20221;-67
2022/10/24 10:54:11;;;;;;;26.25;8.98;;;;;17.50;96399.00;;;;8332065;28;20237;-67
2022/10/24 10:58:42;;;;;;;23.55;7.97;;;;;17.40;96407.00;;;;8332490;28;20268;-68
2022/10/24 11:03:32;;;;;;;19.95;7.72;;;;;17.30;96405.00;;;;8331677;28;20600;-68
2022/10/24 11:08:04;;;;;;;13.55;5.95;;;;;17.20;96370.00;;;;8331785;28;20251;-68
2022/10/24 11:12:34;;;;;;;20.48;7.30;;;;;17.00;96255.00;;;;8332172;28;20224;-68
2022/10/24 11:17:14;;;;;;;22.65;9.82;;;;;16.80;96218.00;;;;8330194;28;20266;-67
2022/10/24 11:21:50;;;;;;;21.10;10.20;;;;;16.60;96252.00;;;;8330302;28;20225;-67
2022/10/24 11:26:26;;;;;;;14.23;8.25;;;;;16.50;96294.00;;;;8364306;28;20220;-66
2022/10/24 11:31:03;;;;;;;15.15;8.55;;;;;16.40;96268.00;;;;8361380;28;20539;-66
2022/10/24 11:35:19;;;;;;;19.30;9.10;;;;;16.40;96287.00;;;;8331695;28;20290;-66
2022/10/24 11:39:44;;;;;;;18.48;8.35;;;;;16.40;96312.00;;;;8330218;28;20244;-66
2022/10/24 11:44:22;;;;;;;15.05;8.32;;;;;16.40;96313.00;;;;8330777;28;20307;-65
2022/10/24 11:48:58;;;;;;;15.75;9.05;;;;;16.40;96328.00;;;;8329662;28;20254;-66
2022/10/24 11:53:39;;;;;;;15.88;7.93;;;;;16.30;96338.00;;;;8329131;28;20544;-66
2022/10/24 11:57:54;;;;;;;14.73;7.75;;;;;16.30;96359.00;;;;8330024;28;20271;-66
2022/10/24 12:02:46;;;;;;;17.33;8.07;;;;;16.30;96363.00;;;;8330065;28;20233;-66
2022/10/24 12:07:51;;;;;;;17.33;7.95;;;;;16.20;96338.00;;;;8228079;28;20219;-66
2022/10/24 12:12:28;;;;;;;18.85;8.30;;;;;16.30;96335.00;;;;8099040;29;20225;-65
2022/10/24 12:17:15;;;;;;;13.65;7.88;;;;;16.30;96326.00;;;;8154103;28;20221;-66
2022/10/24 12:21:24;;;;;;;17.90;7.53;;;;;16.40;96319.00;;;;8291063;28;20220;-66
2022/10/24 12:26:01;;;;;;;13.02;7.25;;;;;16.40;96295.00;;;;8328938;28;20229;-66
2022/10/24 12:30:30;;;;;;;13.15;7.07;;;;;16.50;96259.00;;;;8329987;28;20635;-67
2022/10/24 12:34:44;;;;;;;16.00;6.85;;;;;16.50;96229.00;;;;8328832;28;20579;-67
2022/10/24 12:39:08;;;;;;;14.32;6.35;;;;;16.60;96239.00;;;;8329518;28;20217;-67
2022/10/24 12:43:29;;;;;;;9.30;5.15;;;;;16.60;96227.00;;;;8329457;28;20276;-66
2022/10/24 12:48:11;;;;;;;9.60;5.30;;;;;16.60;96237.00;;;;8328287;28;20225;-66
2022/10/24 12:53:02;;;;;;;10.25;4.80;;;;;16.60;96255.00;;;;8328866;28;20228;-66
2022/10/24 12:57:28;;;;;;;8.52;4.30;;;;;16.60;96217.00;;;;8328322;28;20216;-66
2022/10/24 13:02:20;;;;;;;10.90;4.70;;;;;16.60;96223.00;;;;8328639;28;20225;-66
2022/10/24 13:06:43;;;;;;;13.55;4.15;;;;;16.60;96256.00;;;;8328224;28;20225;-67
2022/10/24 13:11:04;;;;;;;9.70;4.05;;;;;16.70;96252.00;;;;8330377;28;20688;-66
2022/10/24 13:15:23;;;;;;;11.65;4.97;;;;;16.70;96260.00;;;;8328694;28;20650;-67
2022/10/24 13:19:45;;;;;;;8.48;3.70;;;;;16.70;96256.00;;;;8328332;28;20567;-68
2022/10/24 13:24:19;;;;;;;14.50;4.53;;;;;16.70;96269.00;;;;8329962;28;20240;-67
2022/10/24 13:28:57;;;;;;;13.65;3.90;;;;;16.60;96281.00;;;;8327865;28;20232;-67
2022/10/24 13:33:32;;;;;;;10.48;3.45;;;;;16.60;96273.00;;;;8327842;28;20275;-67
2022/10/24 13:38:06;;;;;;;9.80;3.65;;;;;16.50;96284.00;;;;8328070;28;20217;-67
2022/10/24 13:42:25;;;;;;;12.80;3.88;;;;;16.50;96279.00;;;;8328637;28;20225;-67
2022/10/24 13:46:35;;;;;;;9.57;3.70;;;;;16.60;96281.00;;;;8328104;28;20317;-68
2022/10/24 13:50:47;;;;;;;7.72;3.30;;;;;16.60;96269.00;;;;8328612;28;20217;-68
2022/10/24 13:54:54;;;;;;;12.80;3.75;;;;;16.60;96258.00;;;;8328161;28;20229;-68
2022/10/24 13:58:58;;;;;;;6.63;3.75;;;;;16.60;96248.00;;;;8327990;28;20659;-68
2022/10/24 14:03:10;;;;;;;9.20;4.10;;;;;16.60;96246.00;;;;8295428;28;20674;-68
2022/10/24 14:07:20;;;;;;;11.02;3.88;;;;;16.60;96237.00;;;;8295365;28;20251;-68
2022/10/24 14:11:26;;;;;;;14.70;6.40;;;;;16.60;96241.00;;;;8295332;28;20546;-68
2022/10/24 14:15:31;;;;;;;14.75;6.75;;;;;16.60;96229.00;;;;8294776;28;20663;-68
2022/10/24 14:19:39;;;;;;;10.55;4.10;;;;;16.60;96240.00;;;;8295031;28;20230;-68
2022/10/24 14:23:56;;;;;;;10.70;3.42;;;;;16.60;96251.00;;;;8294657;28;20615;-68
2022/10/24 14:28:02;;;;;;;5.97;3.42;;;;;16.50;96247.00;;;;8295450;28;20268;-68
2022/10/24 14:32:07;;;;;;;10.35;5.93;;;;;16.50;96233.00;;;;8295820;28;20663;-68
2022/10/24 14:36:42;;;;;;;11.35;4.03;;;;;16.50;96249.00;;;;8293292;28;20230;-68
2022/10/24 14:40:47;;;;;;;8.65;3.58;;;;;16.40;96274.00;;;;8291453;28;20230;-69
2022/10/24 14:45:03;;;;;;;6.93;3.67;;;;;16.50;96271.00;;;;8295211;28;20221;-69
2022/10/24 14:49:29;;;;;;;8.20;3.40;;;;;16.50;96269.00;;;;8295948;28;20218;-70
2022/10/24 14:53:34;;;;;;;11.13;3.85;;;;;16.50;96273.00;;;;8300723;28;20218;-70
2022/10/24 14:58:20;;;;;;;9.82;3.45;;;;;16.50;96280.00;;;;8299929;28;20571;-70
2022/10/24 15:02:44;;;;;;;10.50;3.20;;;;;16.40;96269.00;;;;8298803;28;20226;-69
2022/10/24 15:06:48;;;;;;;8.95;3.85;;;;;16.40;96279.00;;;;8299528;28;20225;-70
2022/10/24 15:11:28;;;;;;;18.30;4.03;;;;;16.30;96283.00;;;;8298976;28;20233;-70
2022/10/24 15:15:33;;;;;;;9.48;4.18;;;;;16.30;96281.00;;;;8298573;28;20234;-71
2022/10/24 15:20:12;;;;;;;6.32;3.50;;;;;16.20;96292.00;;;;8298503;28;20279;-71
2022/10/24 15:24:43;;;;;;;8.73;3.58;;;;;16.20;96286.00;;;;8298731;28;20218;-71
2022/10/24 15:29:06;;;;;;;8.95;3.97;;;;;16.20;96283.00;;;;8299636;28;20230;-71
2022/10/24 15:33:34;;;;;;;9.75;4.00;;;;;16.10;96278.00;;;;8297705;28;20643;-71
2022/10/24 15:38:11;;;;;;;19.80;17.67;;;;;16.00;96273.00;;;;8298665;28;20226;-71
2022/10/24 15:42:47;;;;;;;12.52;9.07;;;;;15.90;96289.00;;;;8329614;28;20267;-71
2022/10/24 15:47:26;;;;;;;151.10;99.88;;;;;15.80;96299.00;;;;8298865;28;20261;-71
2022/10/24 15:51:59;;;;;;;75.05;53.55;;;;;15.70;96297.00;;;;8302005;28;20222;-71
2022/10/24 15:56:36;;;;;;;100.28;90.72;;;;;15.60;96288.00;;;;8326022;28;20229;-70
2022/10/24 16:00:39;;;;;;;5.35;3.28;;;;;15.60;96281.00;;;;8300103;28;20218;-71
2022/10/24 16:05:16;;;;;;;11.45;5.18;;;;;15.50;96286.00;;;;8296940;28;20518;-71
2022/10/24 16:09:54;;;;;;;14.50;5.53;;;;;15.50;96283.00;;;;8296876;28;22048;-71
2022/10/24 16:14:29;;;;;;;78.57;32.72;;;;;15.50;96302.00;;;;8297217;28;20642;-72
2022/10/24 16:19:03;;;;;;;49.60;22.92;;;;;15.50;96304.00;;;;8329458;28;20304;-71
2022/10/24 16:23:40;;;;;;;31.33;15.35;;;;;15.40;96312.00;;;;8299881;28;20663;-71
2022/10/24 16:28:19;;;;;;;24.15;15.20;;;;;15.40;96307.00;;;;8295143;28;20237;-71
2022/10/24 16:32:53;;;;;;;25.00;9.02;;;;;15.30;96307.00;;;;8296447;28;20229;-71
2022/10/24 16:36:57;;;;;;;15.10;11.88;;;;;15.20;96317.00;;;;8294153;28;20217;-71
2022/10/24 16:41:32;;;;;;;14.13;3.50;;;;;15.20;96330.00;;;;8295834;28;20217;-72
2022/10/24 16:46:14;;;;;;;9.35;4.05;;;;;15.10;96327.00;;;;8293355;28;20229;-71
2022/10/24 16:50:45;;;;;;;11.82;3.80;;;;;15.10;96323.00;;;;8292872;28;20271;-72
2022/10/24 16:55:23;;;;;;;8.40;5.28;;;;;15.00;96322.00;;;;8294712;28;20256;-72
2022/10/24 17:00:00;;;;;;;8.38;3.00;;;;;14.90;96330.00;;;;8294990;28;20218;-72
2022/10/24 17:04:36;;;;;;;6.88;3.00;;;;;14.90;96333.00;;;;8294810;28;20221;-73
2022/10/24 17:09:16;;;;;;;14.60;3.20;;;;;14.90;96326.00;;;;8292676;28;20229;-72
2022/10/24 17:13:46;;;;;;;7.55;3.83;;;;;14.90;96327.00;;;;8290802;28;20226;-72
2022/10/24 17:18:24;;;;;;;1999.90;994.38;;;;;14.80;96333.00;;;;8295401;28;20280;-72
2022/10/24 17:22:59;;;;;;;1057.28;508.65;;;;;14.80;96326.00;;;;8293634;28;20234;-73
2022/10/24 17:27:13;;;;;;;77.72;49.42;;;;;14.80;96335.00;;;;8294461;28;20221;-74
2022/10/24 17:31:16;;;;;;;19.58;10.15;;;;;14.80;96324.00;;;;8295990;28;20233;-73
2022/10/24 17:35:22;;;;;;;55.05;40.22;;;;;14.70;96328.00;;;;8294463;28;20237;-72
2022/10/24 17:40:03;;;;;;;28.27;22.33;;;;;14.70;96325.00;;;;8290786;28;20228;-72
2022/10/24 17:44:37;;;;;;;30.67;23.45;;;;;14.50;96330.00;;;;8293860;28;20222;-72
2022/10/24 17:49:12;;;;;;;16.23;8.05;;;;;14.50;96328.00;;;;8293958;28;20206;-72
2022/10/24 17:53:46;;;;;;;25.10;21.58;;;;;14.40;96331.00;;;;8294923;28;20230;-73
2022/10/24 17:57:50;;;;;;;13.98;9.02;;;;;14.50;96338.00;;;;8295097;28;20626;-72
2022/10/24 18:02:24;;;;;;;15.25;13.13;;;;;14.40;96334.00;;;;8293290;28;20214;-73
2022/10/24 18:07:01;;;;;;;15.18;3.60;;;;;14.30;96342.00;;;;8327739;28;20651;-72
2022/10/24 18:11:38;;;;;;;9.95;3.38;;;;;14.30;96342.00;;;;8293129;28;20264;-73
2022/10/24 18:16:17;;;;;;;8.27;3.72;;;;;14.20;96349.00;;;;8292932;28;20252;-75
2022/10/24 18:20:52;;;;;;;10.13;3.35;;;;;14.10;96342.00;;;;8293747;28;20628;-74
2022/10/24 18:25:28;;;;;;;7.30;3.60;;;;;14.10;96346.00;;;;8297660;28;20702;-74
2022/10/24 18:30:06;;;;;;;8.27;4.10;;;;;14.00;96340.00;;;;8300223;28;20213;-74
2022/10/24 18:34:10;;;;;;;7.00;3.95;;;;;13.90;96336.00;;;;8299327;28;20214;-73
2022/10/24 18:38:48;;;;;;;10.35;3.50;;;;;13.80;96346.00;;;;8300659;28;20221;-74
2022/10/24 18:43:25;;;;;;;12.90;7.65;;;;;13.70;96341.00;;;;8299945;28;20230;-74
2022/10/24 18:48:02;;;;;;;21.75;10.13;;;;;13.60;96332.00;;;;8299827;28;20283;-74
2022/10/24 18:52:41;;;;;;;26.75;13.25;;;;;13.50;96345.00;;;;8300026;28;20651;-75
2022/10/24 18:57:20;;;;;;;10.43;5.10;;;;;13.40;96341.00;;;;8332400;28;20225;-75
2022/10/24 19:01:55;;;;;;;10.10;4.28;;;;;13.30;96328.00;;;;8298397;28;20260;-74
2022/10/24 19:06:29;;;;;;;7.45;3.67;;;;;13.20;96336.00;;;;8300494;28;20217;-74
2022/10/24 19:11:06;;;;;;;9.60;5.38;;;;;13.10;96330.00;;;;8299496;28;20236;-75
2022/10/24 19:15:39;;;;;;;8.93;3.95;;;;;13.10;96322.00;;;;8298887;28;20680;-75
2022/10/24 19:20:20;;;;;;;4.07;3.38;;;;;13.00;96315.00;;;;8300103;28;20253;-74
2022/10/24 19:24:58;;;;;;;9.82;4.47;;;;;12.90;96326.00;;;;8298940;28;20230;-74
2022/10/24 19:29:07;;;;;;;8.63;4.00;;;;;12.90;96316.00;;;;8299129;28;20221;-74
2022/10/24 19:33:11;;;;;;;7.28;3.83;;;;;13.00;96319.00;;;;8298778;28;20221;-75
2022/10/24 19:42:47;;;;;;;9.30;3.75;;;;;13.00;96307.00;;;;8297923;28;20218;-74
2022/10/24 19:47:21;;;;;;;8.20;3.70;;;;;13.00;96308.00;;;;8298863;28;20264;-73
2022/10/24 19:51:58;;;;;;;5.80;3.60;;;;;13.00;96310.00;;;;8298283;28;20226;-74
2022/10/24 19:56:35;;;;;;;7.32;3.10;;;;;13.00;96324.00;;;;8297855;28;20276;-74
2022/10/24 20:01:15;;;;;;;6.28;2.83;;;;;13.00;96324.00;;;;8297535;28;20225;-73
2022/10/24 20:05:18;;;;;;;7.53;3.67;;;;;13.00;96330.00;;;;8298047;28;20248;-74
2022/10/24 20:09:21;;;;;;;5.65;3.90;;;;;13.00;96325.00;;;;8297864;28;20230;-73
2022/10/24 20:13:24;;;;;;;8.55;3.40;;;;;13.10;96334.00;;;;8296692;28;20284;-73
2022/10/24 20:17:29;;;;;;;9.80;3.72;;;;;13.10;96340.00;;;;8298232;28;20237;-73
2022/10/24 20:22:02;;;;;;;10.45;3.55;;;;;13.10;96338.00;;;;8297562;28;20233;-73
2022/10/24 20:26:39;;;;;;;8.65;4.00;;;;;13.10;96337.00;;;;8295932;28;20210;-73
2022/10/24 20:31:20;;;;;;;7.78;3.60;;;;;13.10;96342.00;;;;8297155;28;20226;-73
2022/10/24 20:35:25;;;;;;;6.20;3.47;;;;;13.10;96334.00;;;;8296948;28;20733;-73
2022/10/24 20:39:34;;;;;;;6.00;3.72;;;;;13.10;96350.00;;;;8297434;28;20233;-73
2022/10/24 20:44:10;;;;;;;8.20;4.60;;;;;13.10;96345.00;;;;8296523;28;20225;-72
2022/10/24 20:48:13;;;;;;;8.32;3.70;;;;;13.20;96353.00;;;;8327061;28;20213;-73
2022/10/24 20:52:18;;;;;;;6.60;3.78;;;;;13.30;96352.00;;;;8329144;28;20221;-73
2022/10/24 20:56:40;;;;;;;5.95;3.67;;;;;13.30;96352.00;;;;8328981;28;20236;-73
2022/10/24 21:00:44;;;;;;;11.30;3.63;;;;;13.30;96368.00;;;;8329019;28;20213;-72
2022/10/24 21:04:47;;;;;;;11.38;4.25;;;;;13.40;96370.00;;;;8329387;28;20586;-72
2022/10/24 21:08:54;;;;;;;8.55;3.78;;;;;13.40;96370.00;;;;8329021;28;20221;-72
2022/10/24 21:13:27;;;;;;;6.75;3.05;;;;;13.40;96359.00;;;;8329292;28;20267;-72
2022/10/24 21:17:30;;;;;;;6.90;2.97;;;;;13.50;96365.00;;;;8360983;28;20228;-72
2022/10/24 21:22:07;;;;;;;9.32;3.60;;;;;13.50;96367.00;;;;8362472;28;20224;-73
2022/10/24 21:26:13;;;;;;;4.97;3.00;;;;;13.60;96356.00;;;;8361214;28;20220;-73
2022/10/24 21:30:47;;;;;;;5.53;3.20;;;;;13.60;96383.00;;;;8361376;28;20274;-73
2022/10/24 21:34:50;;;;;;;7.47;3.10;;;;;13.60;96383.00;;;;8328195;28;20224;-73
2022/10/24 21:38:55;;;;;;;5.03;3.20;;;;;13.50;96385.00;;;;8327819;28;20560;-73
2022/10/24 21:43:01;;;;;;;5.50;3.10;;;;;13.50;96365.00;;;;8327656;28;20213;-73
2022/10/24 21:47:13;;;;;;;8.43;3.70;;;;;13.40;96362.00;;;;8328010;28;20227;-74
2022/10/24 21:51:18;;;;;;;6.88;2.90;;;;;13.40;96367.00;;;;8327544;28;20228;-73
2022/10/24 21:55:52;;;;;;;5.50;2.90;;;;;13.40;96365.00;;;;8327481;28;20225;-73
2022/10/24 21:59:57;;;;;;;9.50;3.10;;;;;13.30;96370.00;;;;8326195;28;20213;-73
2022/10/24 22:04:00;;;;;;;7.35;3.38;;;;;13.30;96361.00;;;;8327439;28;20221;-73
2022/10/24 22:08:34;;;;;;;8.38;3.45;;;;;13.20;96368.00;;;;8328283;28;20216;-73
2022/10/24 22:12:37;;;;;;;7.95;3.75;;;;;13.10;96363.00;;;;8294994;28;20226;-73
2022/10/24 22:17:15;;;;;;;12.30;4.45;;;;;13.10;96357.00;;;;8287660;28;20229;-72
2022/10/24 22:21:24;;;;;;;8.20;4.03;;;;;13.10;96370.00;;;;8297679;28;20209;-73
2022/10/24 22:25:56;;;;;;;7.93;3.90;;;;;13.10;96375.00;;;;8293884;28;20664;-73
2022/10/24 22:30:00;;;;;;;9.38;4.80;;;;;13.10;96377.00;;;;8295396;28;20218;-72
2022/10/24 22:34:04;;;;;;;12.77;4.30;;;;;13.10;96379.00;;;;8294246;28;20222;-73